Cherry Point MCAS /Cunningham Field/
KNKT : now visible

Airfield :











YOU CAN JOIN US ON...

 
LOGIN :

Register | Disclaimer

   EN    FR    IT 

 









Legend :    VFR   Marginal VFR   IFR   Intensive IFR   Very Intensive IFR
Visi :
Ceiling :
>= 8 km
>= 3000ft
5 to 8 km
1000 to 3000 ft
1500m to 5 km
500 to 1000 ft
800 to 1500m
200 to 500 ft
< 800m
< 200 ft
Symbols :   Thunderstorms  Fog  Heavy snow  Heavy precipitations  Wind > 20 kt






- Airport Elevation : 29 ft


KNKT - Cherry Point MCAS /Cunningham Field/

CURRENT METAR :
  • 121754Z 04019KT 10SM FEW050 10/M01 A3060 RMK AO2 SLP357 T01001006 10100 20039 58020

EXPIRED METARs :
  • 121654Z 05016KT 10SM CLR 09/M01 A3062 RMK AO2 SLP366 T00941006
  • 121554Z 05018G25KT 10SM CLR 09/00 A3065 RMK AO2 PK WND 05028/1500 SLP375 T00890000

TAF TAF KNKT
Valid from the 12 at 15:00 until the 13 at 15:00 UTC


1215/1315 05018G27KT 9999 SKC QNH3055INS
FM121700 04015G25KT 9999 FEW030 QNH3050INS
FM121900 04012G21KT 9999 BKN030 QNH3045INS
FM122200 03012G21KT 9999 SCT020 OVC030 QNH3035INS
FM130000 03008KT 9999 SCT010 OVC020 QNH3025INS T09/1217Z T07/1305Z



MET'MAP, your aeronautical weather chart ! - Copyright ORBIFLY December 2007 - Disclaimer

ORBIFLY MET'MAP TEAM :

Programming & Development : Alexandra Zaïnal
Concept & original design : Baudouin d'Aumeries
Assistance for programming : Marc-Olivier Méhu
Technical & hardware support : Manuel Goepfert

Contact : metmap@orbifly.com




SOURCES & CREDITS :

   NOAA       Earth
Advisory